Bodega Marine Reserve, California Weather observations

Data are for 10 minute period ending at time listed.
 Day   Time   Solar   Ave.   Ave.  Ave.  Vector  Max.   Baro.   Total    
  of    of     Rad.   Air    Rel.  Wind   Wind   Wind  Press.  Precip.   
Year   Day            Temp.  Hum.  Speed  Dir.   Gust                    
2016   (PST)  Kw/m2    F      %     mph   deg.    mph    mb.     in.     
-------------------------------------------------------------------------
 181    0:10   0.00   49.2    92   21.6   302    28.3   1010.5    0.00 
 181    0:20   0.00   49.1    93   19.6   300    24.5   1010.5    0.00 
 181    0:30   0.00   49.1    93   19.3   302    26.2   1010.5    0.00 
 181    0:40   0.00   49.0    93   18.2   303    25.0   1010.5    0.00 
 181    0:50   0.00   49.0    93   17.8   304    24.0   1010.5    0.00 
 181    1:00   0.00   49.0    93   18.9   302    25.4   1010.5    0.00 
 181    1:10   0.00   49.0    94   18.2   302    25.4   1010.5    0.00 
 181    1:20   0.00   48.9    94   16.8   302    23.0   1010.5    0.00 
 181    1:30   0.00   48.8    94   17.8   302    22.1   1010.5    0.00 
 181    1:40   0.00   48.8    94   17.9   303    25.3   1010.5    0.00 
 181    1:50   0.00   48.7    94   16.3   303    21.5   1010.5    0.00 
 181    2:00   0.00   48.7    94   15.4   308    20.4   1010.5    0.00 
 181    2:10   0.00   48.6    94   15.2   307    20.8   1010.5    0.00 
 181    2:20   0.00   48.6    94   14.7   310    20.3   1010.5    0.00 
 181    2:30   0.00   48.6    94   13.9   308    23.2   1010.5    0.00 
 181    2:40   0.00   48.6    94   13.8   314    18.9   1010.5    0.00 
 181    2:50   0.00   48.6    94   12.4   314    17.4   1010.5    0.00 
 181    3:00   0.00   48.5    94   11.6   310    16.1   1010.5    0.00 
 181    3:10   0.00   48.4    94   12.1   310    16.2   1010.5    0.00 
 181    3:20   0.00   48.6    94   11.8   313    17.0   1010.5    0.00 
 181    3:30   0.00   48.7    94   11.6   309    15.9   1010.5    0.00 
 181    3:40   0.00   48.6    94   13.7   302    18.8   1010.5    0.00 
 181    3:50   0.00   48.6    94   14.0   305    19.4   1010.2    0.00 
 181    4:00   0.00   48.6    94   13.5   314    19.6   1010.5    0.00 
 181    4:10   0.00   48.6    94   12.6   313    19.1   1010.5    0.00 
 181    4:20   0.00   48.6    94   14.2   305    21.4   1010.5    0.00 
 181    4:30   0.00   48.5    94   15.0   305    19.1   1010.5    0.00 
 181    4:40   0.00   48.4    94   12.6   313    18.3   1010.5    0.00 
 181    4:50   0.00   48.5    94   13.4   308    18.6   1010.5    0.00 
 181    5:00   0.00   48.5    95   11.0   308    15.9   1010.5    0.00 
 181    5:10   0.00   48.6    95   12.8   303    17.1   1010.5    2.35 
 181    5:20   0.00   48.6    95   11.7   302    18.1   1010.8    0.00 
 181    5:30   0.00   48.5    95   13.4   302    17.5   1010.5    0.00 
 181    5:40   0.00   48.5    95   12.2   306    18.4   1010.8    0.00 
 181    5:50   0.00   48.4    95   10.9   320    14.8   1010.8    0.00 
 181    6:00   0.00   48.3    95    9.3   322    15.1   1011.2    0.00 
 181    6:10   0.01   48.4    95   10.3   316    14.2   1011.2    0.00 
 181    6:20   0.01   48.6    95   10.5   310    16.1   1011.2    0.00 
 181    6:30   0.03   48.7    95    9.9   306    16.3   1011.2    0.00 
 181    6:40   0.05   48.6    95   12.6   306    16.4   1011.2    0.00 
 181    6:50   0.03   48.4    94    8.0   342    14.2   1011.5    0.00 
 181    7:00   0.03   48.3    95    8.2   322    10.4   1011.9    0.00 
 181    7:10   0.04   48.6    95   10.3   304    16.3   1011.5    0.00 
 181    7:20   0.06   48.8    95   12.9   295    19.4   1011.5    0.00 
 181    7:30   0.07   48.9    95   15.8   298    22.4   1011.5    0.00 
 181    7:40   0.10   48.8    95   14.9   305    20.5   1011.5    0.00 
 181    7:50   0.08   48.8    95   12.1   317    17.2   1011.9    0.00 
 181    8:00   0.10   48.9    95    8.9   322    13.6   1011.9    0.00 
 181    8:10   0.12   49.0    95    7.0   313    10.5   1012.2    0.00 
 181    8:20   0.16   49.2    95    5.7   308     9.1   1012.2    0.00 
 181    8:30   0.17   49.5    95    5.0   289     7.5   1012.2    0.00 
 181    8:40   0.18   49.5    95    7.4   303     9.9   1012.5    0.00 
 181    8:50   0.21   49.9    95    9.3   309    12.2   1012.5    0.00 
 181    9:00   0.20   50.0    94    9.2   308    13.0   1012.5    0.00 
 181    9:10   0.30   49.8    94   10.7   313    14.4   1012.9    0.00 
 181    9:20   0.34   50.5    94   10.3   307    14.9   1012.9    0.00 
 181    9:30   0.32   50.7    93   10.5   304    13.2   1012.9    0.00 
 181    9:40   0.38   51.0    93    9.3   302    12.6   1012.9    0.00 
 181    9:50   0.46   51.3    92    9.5   305    12.3   1012.9    0.00 
 181   10:00   0.42   51.4    92    9.9   305    12.6   1012.9    0.00 
 181   10:10   0.07   51.6    90   10.8   302    13.2   1013.2    0.00 
 181   10:20   0.07   51.7    90   11.7   302    14.7   1012.9    0.00 
 181   10:30   0.07   52.4    88   12.1   305    15.7   1012.9    0.00 
 181   10:40   0.07   52.8    87   11.4   304    15.0   1012.9    0.00 
 181   10:50   0.07   52.5    86   13.3   302    16.2   1013.2    0.00 
 181   11:00   0.07   52.8    86   12.4   300    15.9   1013.2    0.00 
 181   11:10   0.14   53.4    85   13.7   301    17.5   1013.2    0.00 
 181   11:20   0.36   53.7    84   14.8   301    19.6   1013.2    0.00 
 181   11:30   0.41   54.0    83   15.1   299    19.6   1013.2    0.00 
 181   11:40   0.48   53.7    83   16.4   301    21.0   1013.2    0.00 
 181   11:50   0.57   53.7    83   17.3   300    20.5   1013.2    0.00 
 181   12:00   0.51   53.7    83   17.1   303    21.3   1013.2    0.00 
 181   12:10   0.43   54.0    83   16.3   303    22.2   1013.2    0.00 
 181   12:20   0.42   55.0    80   16.0   302    20.7   1013.2    0.00 
 181   12:30   0.39   55.0    80   17.4   302    21.3   1013.2    0.00 
 181   12:40   0.38   55.1    80   17.5   302    21.8   1013.2    0.00 
 181   12:50   0.43   55.5    79   17.5   304    22.1   1013.2    0.00 
 181   13:00   0.61   55.5    78   18.2   303    23.2   1013.2    0.00 
 181   13:10   0.63   55.7    78   18.7   304    23.9   1012.9    0.00 
 181   13:20   0.44   56.2    77   17.9   307    22.9   1012.9    0.00 
 181   13:30   0.44   55.9    77   21.0   305    25.6   1012.9    0.00 
 181   13:40   0.57   56.1    77   20.2   302    26.2   1012.9    0.00 
 181   13:50   0.73   56.0    77   21.3   302    25.9   1012.5    0.00 
 181   14:00   0.82   56.9    75   18.3   305    23.9   1012.5    0.00 
 181   14:10   0.67   56.8    75   19.7   304    25.2   1012.5    0.00 
 181   14:20   0.85   56.5    76   20.9   305    27.0   1012.5    0.00 
 181   14:30   0.82   55.7    77   21.1   306    26.6   1012.5    0.00 
 181   14:40   0.85   55.9    77   19.5   304    25.1   1012.5    0.00 
 181   14:50   0.87   56.4    76   18.7   306    24.5   1012.5    0.00 
 181   15:00   0.61   56.4    76   18.9   306    24.3   1012.2    0.00 
 181   15:10   0.61   56.6    75   18.9   305    24.8   1012.2    0.00 
 181   15:20   0.75   56.7    75   19.0   304    26.1   1012.2    0.00 
 181   15:30   0.29   56.8    75   19.2   302    25.3   1011.9    0.00 
 181   15:40   0.11   56.7    75   19.9   302    24.4   1011.9    0.00 
 181   15:50   0.29   56.9    74   19.1   301    25.0   1011.9    0.00 
 181   16:00   0.49   56.7    75   19.7   301    25.4   1011.5    0.00 
 181   16:10   0.62   56.4    75   19.4   300    25.7   1011.5    0.00 
 181   16:20   0.61   56.4    76   18.9   303    25.4   1011.5    0.00 
 181   16:30   0.60   56.4    76   19.5   304    26.2   1011.5    0.00 
 181   16:40   0.51   56.0    77   20.5   303    28.5   1011.2    0.00 
 181   16:50   0.61   55.7    77   20.8   301    25.3   1011.2    0.00 
 181   17:00   0.23   55.5    77   21.9   300    28.5   1010.8    0.00 
 181   17:10   0.21   55.3    78   22.9   301    29.7   1010.5    0.00 
 181   17:20   0.54   55.5    77   21.2   301    27.5   1010.5    0.00 
 181   17:30   0.51   55.8    77   19.4   301    26.6   1010.5    0.00 
 181   17:40   0.48   55.5    78   20.1   303    25.9   1010.5    0.00 
 181   17:50   0.46   55.4    78   20.5   301    26.3   1010.2    0.00 
 181   18:00   0.43   55.4    78   19.0   301    24.4   1010.2    0.00 
 181   18:10   0.40   55.1    78   19.1   300    25.4   1010.2    0.00 
 181   18:20   0.36   54.8    79   19.8   301    24.9   1010.2    0.00 
 181   18:30   0.33   54.6    79   19.1   304    24.7   1010.2    0.00 
 181   18:40   0.30   54.2    80   19.8   302    26.7   1010.2    0.00 
 181   18:50   0.27   53.8    81   19.8   303    27.4   1010.2    0.00 
 181   19:00   0.24   53.6    81   20.0   304    25.5   1010.2    0.00 
 181   19:10   0.20   53.3    82   20.3   306    28.3   1010.2    0.00 
 181   19:20   0.17   53.1    82   18.9   308    26.3   1010.2    0.00 
 181   19:30   0.15   52.9    83   18.7   310    26.7   1010.2    0.00 
 181   19:40   0.12   52.5    84   20.0   308    26.6   1010.2    0.00 
 181   19:50   0.09   52.2    84   18.8   308    24.8   1010.2    0.00 
 181   20:00   0.07   51.9    85   18.6   308    24.0   1010.2    0.00 
 181   20:10   0.05   51.6    86   17.7   310    25.9   1010.2    0.00 
 181   20:20   0.03   51.3    87   18.1   312    24.0   1010.2    0.00 
 181   20:30   0.02   51.0    87   16.6   309    22.4   1010.2    0.00 
 181   20:40   0.01   50.8    88   16.7   308    22.5   1010.2    0.00 
 181   20:50   0.00   50.6    88   15.9   308    22.6   1010.2    0.00 
 181   21:00   0.00   50.5    88   16.2   309    22.9   1010.2    0.00 
 181   21:10   0.00   50.4    89   16.9   309    22.1   1009.8    0.00 
 181   21:20   0.00   50.3    89   15.7   308    22.1   1009.8    0.00 
 181   21:30   0.00   50.3    89   15.4   307    21.2   1009.8    0.00 
 181   21:40   0.00   50.1    89   14.8   307    19.2   1009.8    0.00 
 181   21:50   0.00   49.9    89   13.3   307    16.5   1009.8    0.00 
 181   22:00   0.00   49.6    90   10.9   306    15.3   1009.8    0.00 
 181   22:10   0.00   49.4    90   10.4   302    14.4   1009.8    0.00 
 181   22:20   0.00   49.4    90    9.7   302    13.2   1009.8    0.00 
 181   22:30   0.00   49.3    91    9.2   305    12.0   1009.8    0.00 
 181   22:40   0.00   49.2    91    8.4   303    11.6   1009.8    0.00 
 181   22:50   0.00   48.8    91    5.6   300     8.9   1009.8    0.00 
 181   23:00   0.00   48.4    91    4.2   285     5.8   1009.8    0.00 
 181   23:10   0.00   47.9    91    3.8   281     5.4   1009.8    0.00 
 181   23:20   0.00   47.6    91    4.5   279     6.0   1009.5    0.00 
 181   23:30   0.00   47.3    92    4.8   279     6.6   1009.8    0.00 
 181   23:40   0.00   47.4    92    4.7   283     6.5   1009.5    0.00 
 181   23:50   0.00   47.4    92    4.4   286     5.7   1009.8    0.00 
 182    0:00   0.00   46.9    92    3.7   286     4.9   1009.8    0.00 

Return to Bodega Marine Reserve graphs page.


Western Regional Climate Center,wrcc@dri.edu